Time;durP1;ratioP1;P1;durP2;ratioP2;P2;SDS_P1;SDS_P2;PMS_P1;PMS_P2;Temp;Humidity;BMP_temperature;BMP_pressure;BME280_temperature;BME280_humidity;BME280_pressure;Samples;Min_cycle;Max_cycle;Signal;HPM_P1;HPM_P2
2022/06/18 00:02:15;;;;;;;12.65;7.10;;;;;;;;;;5113480;28;20285;-78
2022/06/18 00:04:43;;;;;;;11.77;6.80;;;;;;;;;;5112748;27;20221;-78
2022/06/18 00:07:14;;;;;;;12.60;7.53;;;;;;;;;;5113882;28;20302;-79
2022/06/18 00:09:43;;;;;;;9.07;6.32;;;;;;;;;;5113634;28;20212;-78
2022/06/18 00:15:01;;;;;;;13.73;6.90;;;;;;;;;;5128446;27;20228;-78
2022/06/18 00:17:29;;;;;;;13.10;7.35;;;;;;;;;;5133210;27;20220;-78
2022/06/18 00:19:56;;;;;;;10.35;7.30;;;;;;;;;;5113146;28;20213;-78
2022/06/18 00:22:24;;;;;;;11.40;6.95;;;;;;;;;;5113456;28;20232;-78
2022/06/18 00:24:52;;;;;;;11.20;7.40;;;;;;;;;;5112938;28;20736;-78
2022/06/18 00:27:21;;;;;;;10.23;6.85;;;;;;;;;;5113408;28;20285;-78
2022/06/18 00:29:49;;;;;;;10.93;7.22;;;;;;;;;;5113373;28;20244;-78
2022/06/18 00:32:16;;;;;;;10.80;7.45;;;;;;;;;;5116162;27;20284;-78
2022/06/18 00:34:44;;;;;;;10.38;7.15;;;;;;;;;;5117940;27;20304;-78
2022/06/18 00:37:13;;;;;;;9.68;7.57;;;;;;;;;;5115581;27;20229;-78
2022/06/18 00:39:40;;;;;;;12.50;7.88;;;;;;;;;;5133846;27;20228;-78
2022/06/18 00:42:09;;;;;;;12.68;7.50;;;;;;;;;;5133528;27;20284;-78
2022/06/18 00:44:39;;;;;;;13.68;7.57;;;;;;;;;;5133395;27;20253;-78
2022/06/18 00:47:10;;;;;;;10.70;7.20;;;;;;;;;;5133381;27;20739;-78
2022/06/18 00:49:42;;;;;;;11.20;8.00;;;;;;;;;;5133204;27;20644;-78
2022/06/18 00:52:12;;;;;;;16.60;7.50;;;;;;;;;;5112260;28;20202;-78
2022/06/18 00:54:43;;;;;;;9.45;7.90;;;;;;;;;;5111970;28;20243;-78
2022/06/18 00:57:13;;;;;;;13.75;8.15;;;;;;;;;;5113971;27;20258;-78
2022/06/18 00:59:46;;;;;;;13.02;9.43;;;;;;;;;;5124241;27;20208;-78
2022/06/18 01:02:15;;;;;;;14.82;8.73;;;;;;;;;;5132934;27;20201;-78
2022/06/18 01:04:42;;;;;;;12.93;8.85;;;;;;;;;;5136926;27;20260;-78
2022/06/18 01:07:16;;;;;;;10.98;8.18;;;;;;;;;;5140162;27;20275;-78
2022/06/18 01:09:46;;;;;;;11.60;8.65;;;;;;;;;;5132653;27;20283;-78
2022/06/18 01:12:13;;;;;;;15.10;8.82;;;;;;;;;;5132774;27;20285;-78
2022/06/18 01:14:41;;;;;;;11.57;8.35;;;;;;;;;;5132444;27;20291;-78
2022/06/18 01:17:09;;;;;;;10.13;8.27;;;;;;;;;;5114842;27;20239;-78
2022/06/18 01:19:39;;;;;;;12.95;8.25;;;;;;;;;;5132466;27;20232;-78
2022/06/18 01:22:11;;;;;;;9.57;7.80;;;;;;;;;;5132517;27;20197;-78
2022/06/18 01:24:41;;;;;;;15.15;9.10;;;;;;;;;;5132497;27;20656;-78
2022/06/18 01:27:09;;;;;;;11.20;8.25;;;;;;;;;;5132794;27;20287;-78
2022/06/18 01:29:36;;;;;;;11.20;8.75;;;;;;;;;;5132175;27;20240;-78
2022/06/18 01:32:04;;;;;;;8.55;7.65;;;;;;;;;;5149709;27;20309;-78
2022/06/18 01:34:32;;;;;;;15.18;8.90;;;;;;;;;;5148482;27;20283;-78
2022/06/18 01:37:00;;;;;;;9.77;8.35;;;;;;;;;;5140875;27;20254;-78
2022/06/18 01:39:31;;;;;;;12.05;8.65;;;;;;;;;;5132772;27;20283;-78
2022/06/18 01:42:03;;;;;;;12.85;8.88;;;;;;;;;;5132757;27;20291;-78
2022/06/18 01:44:33;;;;;;;13.50;8.95;;;;;;;;;;5132435;27;20763;-78
2022/06/18 01:47:03;;;;;;;14.68;9.18;;;;;;;;;;5132180;28;20236;-78
2022/06/18 01:49:34;;;;;;;12.63;9.38;;;;;;;;;;5141467;27;20718;-78
2022/06/18 01:52:02;;;;;;;12.88;9.18;;;;;;;;;;5137364;27;20225;-78
2022/06/18 01:54:32;;;;;;;12.02;9.52;;;;;;;;;;5131743;28;20284;-78
2022/06/18 01:57:03;;;;;;;11.20;9.20;;;;;;;;;;5140045;27;20299;-78
2022/06/18 01:59:31;;;;;;;12.83;8.80;;;;;;;;;;5145845;27;20300;-78
2022/06/18 02:01:59;;;;;;;10.53;8.93;;;;;;;;;;5131925;28;20283;-78
2022/06/18 02:04:27;;;;;;;12.93;8.75;;;;;;;;;;5129797;28;20285;-78
2022/06/18 02:06:55;;;;;;;12.38;8.88;;;;;;;;;;5121224;28;20254;-78
2022/06/18 02:09:30;;;;;;;10.45;8.38;;;;;;;;;;5132359;28;20635;-78
2022/06/18 02:12:00;;;;;;;10.73;8.60;;;;;;;;;;5132324;28;20287;-78
2022/06/18 02:14:29;;;;;;;11.60;8.65;;;;;;;;;;5111669;28;20192;-78
2022/06/18 02:16:56;;;;;;;9.60;8.13;;;;;;;;;;5111255;28;20256;-78
2022/06/18 02:19:23;;;;;;;10.60;8.90;;;;;;;;;;5111391;28;20281;-78
2022/06/18 02:21:56;;;;;;;11.90;8.63;;;;;;;;;;5113829;28;20197;-78
2022/06/18 02:24:24;;;;;;;11.57;8.77;;;;;;;;;;5115068;27;20653;-78
2022/06/18 02:26:51;;;;;;;12.73;9.07;;;;;;;;;;5133610;27;20687;-78
2022/06/18 02:29:20;;;;;;;12.53;9.00;;;;;;;;;;5132288;27;20639;-78
2022/06/18 02:31:49;;;;;;;11.57;7.75;;;;;;;;;;5115567;28;20276;-78
2022/06/18 02:34:19;;;;;;;12.30;8.30;;;;;;;;;;5120536;27;20240;-78
2022/06/18 02:36:46;;;;;;;13.87;8.33;;;;;;;;;;5116234;27;20230;-78
2022/06/18 02:39:18;;;;;;;10.10;8.03;;;;;;;;;;5124811;27;20283;-78
2022/06/18 02:41:46;;;;;;;10.60;8.43;;;;;;;;;;5115159;28;20296;-78
2022/06/18 02:44:14;;;;;;;12.17;8.30;;;;;;;;;;5114189;28;20923;-78
2022/06/18 02:46:42;;;;;;;13.23;8.50;;;;;;;;;;5115014;28;20285;-78
2022/06/18 02:49:12;;;;;;;9.93;8.83;;;;;;;;;;5115181;28;20240;-78
2022/06/18 02:51:39;;;;;;;9.90;8.90;;;;;;;;;;5115217;28;20289;-78
2022/06/18 02:54:07;;;;;;;11.30;9.00;;;;;;;;;;5115332;28;20237;-78
2022/06/18 02:56:34;;;;;;;12.13;8.70;;;;;;;;;;5113647;27;20736;-78
2022/06/18 02:59:04;;;;;;;10.77;8.70;;;;;;;;;;5115056;28;20281;-78
2022/06/18 03:01:33;;;;;;;11.97;9.37;;;;;;;;;;5119779;27;20292;-78
2022/06/18 03:04:01;;;;;;;13.23;8.83;;;;;;;;;;5115526;27;20201;-78
2022/06/18 03:06:31;;;;;;;10.00;8.83;;;;;;;;;;5133603;27;21007;-78
2022/06/18 03:08:58;;;;;;;16.27;9.60;;;;;;;;;;5135212;27;20225;-78
2022/06/18 03:14:13;;;;;;;13.77;9.23;;;;;;;;;;5115608;27;20273;-78
2022/06/18 03:16:40;;;;;;;12.67;9.67;;;;;;;;;;5134792;27;20217;-78
2022/06/18 03:19:08;;;;;;;14.43;10.10;;;;;;;;;;5135340;27;20665;-78
2022/06/18 03:21:39;;;;;;;11.40;10.10;;;;;;;;;;5135200;27;20314;-78
2022/06/18 03:24:07;;;;;;;12.17;9.50;;;;;;;;;;5122236;27;20284;-78
2022/06/18 03:26:36;;;;;;;13.47;10.20;;;;;;;;;;5132083;27;20209;-78
2022/06/18 03:29:03;;;;;;;15.67;10.27;;;;;;;;;;5114442;28;20198;-78
2022/06/18 03:31:30;;;;;;;15.63;9.67;;;;;;;;;;5114833;28;20225;-78
2022/06/18 03:33:58;;;;;;;15.40;9.40;;;;;;;;;;5128268;27;20232;-78
2022/06/18 03:36:25;;;;;;;11.17;10.03;;;;;;;;;;5134054;27;20263;-78
2022/06/18 03:38:53;;;;;;;11.83;10.60;;;;;;;;;;5114166;28;20233;-78
2022/06/18 03:41:21;;;;;;;13.83;10.00;;;;;;;;;;5118161;27;20224;-78
2022/06/18 03:43:49;;;;;;;12.80;10.20;;;;;;;;;;5134837;27;20228;-78
2022/06/18 03:46:17;;;;;;;10.67;9.60;;;;;;;;;;5134418;27;20647;-78
2022/06/18 03:48:45;;;;;;;11.70;10.37;;;;;;;;;;5124451;27;20623;-78
2022/06/18 03:51:13;;;;;;;11.23;10.13;;;;;;;;;;5114302;28;20251;-78
2022/06/18 03:53:40;;;;;;;13.60;10.23;;;;;;;;;;5114354;28;20288;-78
2022/06/18 03:56:10;;;;;;;12.73;9.67;;;;;;;;;;5113968;27;20217;-78
2022/06/18 03:58:38;;;;;;;11.83;9.47;;;;;;;;;;5113748;28;20284;-78
2022/06/18 04:01:05;;;;;;;14.43;9.97;;;;;;;;;;5113709;27;20383;-78
2022/06/18 04:03:32;;;;;;;13.17;9.63;;;;;;;;;;5113824;28;20208;-78
2022/06/18 04:06:00;;;;;;;12.67;9.80;;;;;;;;;;5113779;28;20321;-78
2022/06/18 04:08:27;;;;;;;13.63;9.53;;;;;;;;;;5112837;28;20286;-78
2022/06/18 04:10:54;;;;;;;12.80;10.00;;;;;;;;;;5113230;28;20289;-78
2022/06/18 04:13:23;;;;;;;11.23;9.90;;;;;;;;;;5113873;28;20285;-78
2022/06/18 04:15:51;;;;;;;13.33;9.57;;;;;;;;;;5113746;28;20229;-78
2022/06/18 04:18:18;;;;;;;11.57;9.73;;;;;;;;;;5113534;28;20629;-78
2022/06/18 04:20:45;;;;;;;11.83;9.60;;;;;;;;;;5112988;28;20237;-78
2022/06/18 04:23:15;;;;;;;10.80;9.57;;;;;;;;;;5113461;28;20937;-78
2022/06/18 04:25:42;;;;;;;12.50;9.40;;;;;;;;;;5113440;28;20204;-78
2022/06/18 04:28:10;;;;;;;11.30;8.90;;;;;;;;;;5113638;28;20225;-78
2022/06/18 04:30:39;;;;;;;15.70;9.83;;;;;;;;;;5112362;28;20281;-78
2022/06/18 04:33:06;;;;;;;14.03;10.33;;;;;;;;;;5115122;27;20548;-78
2022/06/18 04:35:34;;;;;;;15.77;9.50;;;;;;;;;;5113692;28;20284;-78
2022/06/18 04:38:01;;;;;;;13.33;9.87;;;;;;;;;;5113449;28;20193;-78
2022/06/18 04:40:32;;;;;;;11.13;9.33;;;;;;;;;;5113279;28;20614;-78
2022/06/18 04:43:00;;;;;;;11.10;9.70;;;;;;;;;;5113454;27;20201;-78
2022/06/18 04:45:27;;;;;;;12.70;9.63;;;;;;;;;;5112259;28;20304;-78
2022/06/18 04:47:56;;;;;;;10.00;9.00;;;;;;;;;;5112459;28;20661;-78
2022/06/18 04:50:25;;;;;;;13.50;10.03;;;;;;;;;;5112929;28;20228;-78
2022/06/18 04:52:52;;;;;;;11.10;8.88;;;;;;;;;;5112121;27;20933;-78
2022/06/18 04:55:20;;;;;;;11.98;9.07;;;;;;;;;;5112980;28;20297;-78
2022/06/18 04:57:47;;;;;;;12.60;8.63;;;;;;;;;;5113115;27;20253;-78
2022/06/18 05:00:15;;;;;;;11.25;8.73;;;;;;;;;;5113340;28;20615;-78
2022/06/18 05:02:42;;;;;;;11.27;8.88;;;;;;;;;;5112715;28;20281;-78
2022/06/18 05:05:15;;;;;;;16.48;9.30;;;;;;;;;;5120054;27;20687;-78
2022/06/18 05:07:42;;;;;;;11.68;8.77;;;;;;;;;;5117627;27;20294;-78
2022/06/18 05:10:10;;;;;;;14.95;8.63;;;;;;;;;;5112408;28;20288;-78
2022/06/18 05:12:37;;;;;;;10.93;7.90;;;;;;;;;;5112542;28;20259;-78
2022/06/18 05:15:05;;;;;;;14.90;8.70;;;;;;;;;;5112468;28;20229;-78
2022/06/18 05:17:33;;;;;;;13.05;8.32;;;;;;;;;;5112748;28;20256;-78
2022/06/18 05:20:01;;;;;;;9.85;8.20;;;;;;;;;;5120825;27;20255;-78
2022/06/18 05:22:30;;;;;;;16.48;8.63;;;;;;;;;;5133319;27;20254;-78
2022/06/18 05:24:57;;;;;;;11.35;8.43;;;;;;;;;;5133438;27;20200;-78
2022/06/18 05:27:27;;;;;;;11.00;8.20;;;;;;;;;;5122218;27;20301;-78
2022/06/18 05:29:54;;;;;;;12.55;7.97;;;;;;;;;;5123292;27;20313;-75
2022/06/18 05:32:22;;;;;;;13.27;8.27;;;;;;;;;;5131499;27;20747;-75
2022/06/18 05:34:49;;;;;;;11.95;7.55;;;;;;;;;;5112458;28;20285;-75
2022/06/18 05:37:18;;;;;;;11.27;7.80;;;;;;;;;;5111408;28;20308;-75
2022/06/18 05:39:46;;;;;;;12.63;7.28;;;;;;;;;;5091412;28;20293;-75
2022/06/18 05:42:14;;;;;;;9.98;7.78;;;;;;;;;;5117629;27;20283;-75
2022/06/18 05:44:41;;;;;;;13.85;7.70;;;;;;;;;;5122863;27;20304;-75
2022/06/18 05:47:16;;;;;;;13.00;7.70;;;;;;;;;;5111981;28;20387;-75
2022/06/18 05:49:43;;;;;;;9.70;7.70;;;;;;;;;;5112131;28;20564;-75
2022/06/18 05:52:11;;;;;;;11.57;7.60;;;;;;;;;;5112118;28;20288;-75
2022/06/18 05:54:38;;;;;;;10.57;7.13;;;;;;;;;;5111638;28;20236;-75
2022/06/18 05:57:07;;;;;;;10.40;7.38;;;;;;;;;;5114159;28;20760;-75
2022/06/18 05:59:34;;;;;;;8.40;7.00;;;;;;;;;;5116044;28;20611;-75
2022/06/18 06:02:01;;;;;;;9.75;7.57;;;;;;;;;;5116120;28;20272;-75
2022/06/18 06:04:29;;;;;;;10.80;7.30;;;;;;;;;;5117689;27;20576;-76
2022/06/18 06:06:57;;;;;;;8.50;6.75;;;;;;;;;;5136373;27;20288;-76
2022/06/18 06:12:11;;;;;;;12.27;6.85;;;;;;;;;;5135653;27;20196;-76
2022/06/18 06:14:39;;;;;;;9.60;6.93;;;;;;;;;;5135363;27;20283;-76
2022/06/18 06:17:06;;;;;;;7.63;6.78;;;;;;;;;;5135847;27;20311;-75
2022/06/18 06:19:34;;;;;;;11.02;6.97;;;;;;;;;;5122027;27;20201;-76
2022/06/18 06:22:02;;;;;;;11.25;6.10;;;;;;;;;;5129555;27;20288;-74
2022/06/18 06:24:29;;;;;;;7.72;6.43;;;;;;;;;;5132917;27;20292;-74
2022/06/18 06:26:56;;;;;;;10.05;6.60;;;;;;;;;;5135488;27;20296;-74
2022/06/18 06:29:25;;;;;;;9.77;7.05;;;;;;;;;;5135852;27;20232;-74
2022/06/18 06:31:52;;;;;;;8.98;6.50;;;;;;;;;;5142608;27;20241;-73
2022/06/18 06:34:19;;;;;;;14.10;6.47;;;;;;;;;;5156899;27;20283;-74
2022/06/18 06:36:46;;;;;;;13.80;7.07;;;;;;;;;;5120248;27;20236;-73
2022/06/18 06:39:14;;;;;;;8.63;6.80;;;;;;;;;;5132700;27;20231;-74
2022/06/18 06:41:41;;;;;;;11.10;6.75;;;;;;;;;;5132238;27;20253;-74
2022/06/18 06:44:09;;;;;;;9.18;7.00;;;;;;;;;;5134724;27;20244;-74
2022/06/18 06:46:38;;;;;;;9.50;6.63;;;;;;;;;;5141608;27;20288;-74
2022/06/18 06:49:05;;;;;;;10.90;6.78;;;;;;;;;;5156378;27;20196;-74
2022/06/18 06:51:34;;;;;;;12.00;6.97;;;;;;;;;;5156062;27;20659;-74
2022/06/18 06:54:01;;;;;;;9.05;7.03;;;;;;;;;;5147212;27;20236;-73
2022/06/18 06:59:21;;;;;;;9.93;6.53;;;;;;;;;;5100485;27;20229;-74
2022/06/18 07:01:52;;;;;;;12.13;6.80;;;;;;;;;;5133552;27;20712;-74
2022/06/18 07:04:20;;;;;;;8.63;6.47;;;;;;;;;;5133629;27;20193;-73
2022/06/18 07:06:47;;;;;;;7.75;5.60;;;;;;;;;;5129331;27;20201;-74
2022/06/18 07:09:14;;;;;;;11.35;6.65;;;;;;;;;;5124747;27;20312;-73
2022/06/18 07:11:43;;;;;;;11.18;6.03;;;;;;;;;;5122703;27;20310;-74
2022/06/18 07:14:10;;;;;;;10.55;6.00;;;;;;;;;;5119555;27;20679;-74
2022/06/18 07:16:48;;;;;;;12.30;6.45;;;;;;;;;;5121839;27;20256;-74
2022/06/18 07:19:17;;;;;;;9.88;5.90;;;;;;;;;;5120007;27;20696;-74
2022/06/18 07:21:44;;;;;;;8.20;5.60;;;;;;;;;;5121755;27;20229;-74
2022/06/18 07:24:12;;;;;;;11.13;5.57;;;;;;;;;;5120996;27;20250;-74
2022/06/18 07:26:39;;;;;;;8.15;5.70;;;;;;;;;;5124641;27;20236;-74
2022/06/18 07:29:06;;;;;;;8.48;5.60;;;;;;;;;;5125126;27;20288;-74
2022/06/18 07:31:35;;;;;;;8.13;5.72;;;;;;;;;;5121832;27;20281;-74
2022/06/18 07:34:02;;;;;;;7.47;5.30;;;;;;;;;;5123691;27;20197;-74
2022/06/18 07:36:32;;;;;;;8.85;5.20;;;;;;;;;;5123913;27;20224;-74
2022/06/18 07:39:01;;;;;;;10.70;5.65;;;;;;;;;;5122680;27;20198;-74
2022/06/18 07:41:32;;;;;;;6.97;5.38;;;;;;;;;;5125339;27;20242;-74
2022/06/18 07:43:59;;;;;;;9.85;5.13;;;;;;;;;;5113297;28;20220;-74
2022/06/18 07:46:26;;;;;;;6.00;4.72;;;;;;;;;;5119833;27;20202;-74
2022/06/18 07:48:54;;;;;;;8.18;4.63;;;;;;;;;;5122027;27;20280;-74
2022/06/18 07:51:21;;;;;;;8.00;5.18;;;;;;;;;;5123441;27;20197;-74
2022/06/18 07:53:49;;;;;;;10.57;4.88;;;;;;;;;;5121047;27;20284;-74
2022/06/18 07:56:17;;;;;;;9.80;4.88;;;;;;;;;;5118818;27;20225;-74
2022/06/18 07:58:44;;;;;;;7.82;4.53;;;;;;;;;;5116097;27;20221;-74
2022/06/18 08:01:11;;;;;;;8.93;4.28;;;;;;;;;;5118973;27;20296;-74
2022/06/18 08:03:39;;;;;;;6.65;4.40;;;;;;;;;;5123821;27;20280;-74
2022/06/18 08:06:07;;;;;;;8.95;4.22;;;;;;;;;;5129530;27;20271;-75
2022/06/18 08:08:35;;;;;;;11.10;4.50;;;;;;;;;;5132074;27;20189;-74
2022/06/18 08:11:04;;;;;;;6.57;4.20;;;;;;;;;;5130011;27;20201;-74
2022/06/18 08:13:31;;;;;;;5.97;4.18;;;;;;;;;;5132928;27;20231;-75
2022/06/18 08:15:58;;;;;;;8.02;4.55;;;;;;;;;;5132318;27;20203;-74
2022/06/18 08:18:26;;;;;;;10.05;4.50;;;;;;;;;;5131730;27;20228;-75
2022/06/18 08:20:53;;;;;;;5.72;4.18;;;;;;;;;;5151657;27;20227;-75
2022/06/18 08:23:20;;;;;;;7.32;4.30;;;;;;;;;;5132896;27;20734;-75
2022/06/18 08:25:47;;;;;;;8.13;3.92;;;;;;;;;;5119159;27;20389;-75
2022/06/18 08:28:16;;;;;;;8.48;4.20;;;;;;;;;;5133402;27;20295;-74
2022/06/18 08:30:44;;;;;;;6.18;4.30;;;;;;;;;;5132303;27;20207;-75
2022/06/18 08:33:11;;;;;;;7.10;4.00;;;;;;;;;;5132778;27;20200;-75
2022/06/18 08:35:39;;;;;;;4.75;3.75;;;;;;;;;;5132310;27;20328;-75
2022/06/18 08:38:08;;;;;;;4.90;3.53;;;;;;;;;;5133676;27;20216;-75
2022/06/18 08:40:44;;;;;;;5.60;3.42;;;;;;;;;;5132877;27;20196;-75
2022/06/18 08:43:20;;;;;;;3.50;3.20;;;;;;;;;;5132814;27;20271;-75
2022/06/18 08:45:51;;;;;;;7.60;3.90;;;;;;;;;;5132557;27;20307;-76
2022/06/18 08:48:27;;;;;;;4.93;3.33;;;;;;;;;;5133170;27;20280;-75
2022/06/18 08:51:01;;;;;;;5.75;3.22;;;;;;;;;;5131375;27;20291;-76
2022/06/18 08:53:39;;;;;;;4.25;3.47;;;;;;;;;;5133305;27;20770;-76
2022/06/18 08:56:09;;;;;;;7.57;3.40;;;;;;;;;;5132069;27;20507;-76
2022/06/18 08:58:40;;;;;;;4.25;2.92;;;;;;;;;;5132236;27;20240;-76
2022/06/18 09:01:11;;;;;;;5.95;3.88;;;;;;;;;;5131851;27;20628;-76
2022/06/18 09:03:49;;;;;;;4.57;3.33;;;;;;;;;;5131174;27;20287;-76
2022/06/18 09:06:24;;;;;;;5.45;3.30;;;;;;;;;;5124202;27;20303;-76
2022/06/18 09:08:55;;;;;;;6.25;3.03;;;;;;;;;;5116824;27;20253;-76
2022/06/18 09:11:25;;;;;;;4.22;3.00;;;;;;;;;;5121373;27;20197;-77
2022/06/18 09:13:57;;;;;;;4.50;3.17;;;;;;;;;;5109032;27;20203;-76
2022/06/18 09:16:27;;;;;;;6.80;3.38;;;;;;;;;;5121095;27;20222;-76
2022/06/18 09:18:55;;;;;;;5.20;3.40;;;;;;;;;;5120892;27;20243;-76
2022/06/18 09:21:24;;;;;;;4.95;3.70;;;;;;;;;;5121163;27;20288;-76
2022/06/18 09:23:54;;;;;;;6.03;3.50;;;;;;;;;;5117188;27;20675;-76
2022/06/18 09:26:23;;;;;;;6.50;3.40;;;;;;;;;;5111436;27;20197;-76
2022/06/18 09:28:52;;;;;;;4.68;3.42;;;;;;;;;;5120231;27;20267;-76
2022/06/18 09:31:22;;;;;;;4.78;3.20;;;;;;;;;;5120594;27;20232;-76
2022/06/18 09:33:52;;;;;;;3.85;3.38;;;;;;;;;;5118969;27;20752;-76
2022/06/18 09:36:21;;;;;;;4.05;3.30;;;;;;;;;;5119893;27;20617;-76
2022/06/18 09:38:51;;;;;;;5.45;3.60;;;;;;;;;;5119200;27;20351;-76
2022/06/18 09:41:20;;;;;;;4.05;3.42;;;;;;;;;;5122277;27;20228;-76
2022/06/18 09:43:53;;;;;;;5.60;3.88;;;;;;;;;;5112901;27;20410;-76
2022/06/18 09:46:22;;;;;;;7.07;3.47;;;;;;;;;;5108505;28;20288;-76
2022/06/18 09:48:49;;;;;;;6.35;3.50;;;;;;;;;;5108999;28;20284;-76
2022/06/18 09:51:21;;;;;;;8.95;3.70;;;;;;;;;;5106301;27;20251;-76
2022/06/18 09:53:49;;;;;;;7.57;3.40;;;;;;;;;;5108518;28;20219;-76
2022/06/18 09:56:20;;;;;;;10.10;3.65;;;;;;;;;;5108728;28;20225;-76
2022/06/18 09:58:50;;;;;;;7.93;3.60;;;;;;;;;;5111943;28;20225;-76
2022/06/18 10:01:18;;;;;;;7.03;3.38;;;;;;;;;;5117953;28;20201;-76
2022/06/18 10:06:55;;;;;;;10.88;3.65;;;;;;;;;;5097426;28;20228;-76
2022/06/18 10:09:25;;;;;;;10.65;3.85;;;;;;;;;;5103167;28;20197;-76
2022/06/18 10:11:53;;;;;;;9.48;3.65;;;;;;;;;;5107743;28;20292;-76
2022/06/18 10:14:20;;;;;;;9.38;3.42;;;;;;;;;;5108561;28;20284;-76
2022/06/18 10:16:53;;;;;;;12.40;3.70;;;;;;;;;;5108035;28;20346;-76
2022/06/18 10:19:26;;;;;;;10.43;3.67;;;;;;;;;;5091158;28;20287;-76
2022/06/18 10:21:58;;;;;;;8.25;3.53;;;;;;;;;;5108256;28;20411;-76
2022/06/18 10:24:30;;;;;;;6.63;3.30;;;;;;;;;;5111245;28;20287;-76
2022/06/18 10:27:01;;;;;;;10.20;3.60;;;;;;;;;;5112469;28;20248;-76
2022/06/18 10:29:31;;;;;;;8.88;3.72;;;;;;;;;;5115314;28;20228;-76
2022/06/18 10:32:08;;;;;;;14.18;4.10;;;;;;;;;;5107637;28;20288;-76
2022/06/18 10:34:41;;;;;;;11.63;4.03;;;;;;;;;;5109048;28;20234;-76
2022/06/18 10:37:15;;;;;;;13.35;3.95;;;;;;;;;;5108064;28;20304;-76
2022/06/18 10:39:48;;;;;;;11.05;3.97;;;;;;;;;;5108193;28;20240;-76
2022/06/18 10:42:23;;;;;;;9.80;4.13;;;;;;;;;;5111111;28;20244;-76
2022/06/18 10:44:58;;;;;;;15.00;4.28;;;;;;;;;;5114741;28;20307;-76
2022/06/18 10:47:32;;;;;;;11.15;3.88;;;;;;;;;;5108869;27;20276;-76
2022/06/18 10:50:04;;;;;;;10.73;3.60;;;;;;;;;;5116667;27;20197;-76
2022/06/18 10:52:33;;;;;;;9.95;3.95;;;;;;;;;;5114864;27;20229;-76
2022/06/18 10:55:08;;;;;;;12.95;4.55;;;;;;;;;;5115142;28;20716;-76
2022/06/18 10:57:35;;;;;;;14.75;4.05;;;;;;;;;;5114769;28;20287;-76
2022/06/18 11:00:09;;;;;;;11.40;3.83;;;;;;;;;;5115127;28;20231;-78
2022/06/18 11:02:37;;;;;;;10.20;4.22;;;;;;;;;;5114770;28;20284;-78
2022/06/18 11:05:06;;;;;;;9.80;4.10;;;;;;;;;;5122118;27;20274;-78
2022/06/18 11:07:35;;;;;;;10.02;3.97;;;;;;;;;;5124724;27;20723;-78
2022/06/18 11:10:05;;;;;;;12.27;4.30;;;;;;;;;;5134984;27;20196;-78
2022/06/18 11:12:34;;;;;;;13.32;3.97;;;;;;;;;;5128490;27;20204;-78
2022/06/18 11:15:02;;;;;;;11.20;3.80;;;;;;;;;;5129725;27;20235;-76
2022/06/18 11:17:31;;;;;;;12.43;4.00;;;;;;;;;;5122181;27;20236;-76
2022/06/18 11:20:08;;;;;;;13.77;4.13;;;;;;;;;;5123877;27;20229;-75
2022/06/18 11:22:37;;;;;;;14.40;4.53;;;;;;;;;;5115877;27;20283;-76
2022/06/18 11:25:06;;;;;;;10.77;4.07;;;;;;;;;;5113897;28;20205;-76
2022/06/18 11:27:36;;;;;;;11.70;3.90;;;;;;;;;;5127814;27;20240;-75
2022/06/18 11:30:08;;;;;;;9.93;4.20;;;;;;;;;;5113642;27;20292;-76
2022/06/18 11:32:37;;;;;;;9.43;3.90;;;;;;;;;;5118543;27;20252;-76
2022/06/18 11:35:06;;;;;;;11.02;3.90;;;;;;;;;;5133215;27;20291;-76
2022/06/18 11:37:34;;;;;;;11.70;4.55;;;;;;;;;;5134201;27;20271;-76
2022/06/18 11:40:04;;;;;;;9.68;4.30;;;;;;;;;;5121211;27;20299;-76
2022/06/18 11:42:35;;;;;;;8.95;3.83;;;;;;;;;;5133344;27;20276;-76
2022/06/18 11:45:08;;;;;;;11.32;4.30;;;;;;;;;;5129502;27;20342;-76
2022/06/18 11:47:37;;;;;;;12.70;4.88;;;;;;;;;;5118409;27;20716;-75
2022/06/18 11:50:07;;;;;;;10.60;3.92;;;;;;;;;;5130715;27;20260;-75
2022/06/18 11:52:37;;;;;;;11.77;4.65;;;;;;;;;;5117269;27;20288;-75
2022/06/18 11:55:17;;;;;;;12.60;4.07;;;;;;;;;;5132064;27;20192;-75
2022/06/18 11:57:47;;;;;;;10.60;4.20;;;;;;;;;;5119085;27;20219;-75
2022/06/18 12:00:19;;;;;;;12.68;4.60;;;;;;;;;;5134041;27;20781;-76
2022/06/18 12:02:49;;;;;;;11.40;4.22;;;;;;;;;;5111050;27;20229;-76
2022/06/18 12:05:19;;;;;;;14.18;4.30;;;;;;;;;;5113184;28;20667;-76
2022/06/18 12:07:50;;;;;;;13.65;4.25;;;;;;;;;;5120459;27;20232;-76
2022/06/18 12:10:20;;;;;;;16.95;4.75;;;;;;;;;;5112892;28;20283;-76
2022/06/18 12:13:05;;;;;;;16.13;4.75;;;;;;;;;;5127444;27;20224;-76
2022/06/18 12:15:36;;;;;;;17.30;5.20;;;;;;;;;;5112573;27;20207;-76
2022/06/18 12:18:06;;;;;;;23.15;4.65;;;;;;;;;;5125503;27;20288;-76
2022/06/18 12:20:41;;;;;;;13.95;4.43;;;;;;;;;;5112108;28;20659;-76
2022/06/18 12:23:12;;;;;;;15.73;4.72;;;;;;;;;;5112127;27;20235;-75
2022/06/18 12:25:44;;;;;;;15.00;4.57;;;;;;;;;;5112625;28;20255;-76
2022/06/18 12:28:15;;;;;;;11.15;4.32;;;;;;;;;;5119229;27;20786;-76
2022/06/18 12:30:44;;;;;;;13.13;5.20;;;;;;;;;;5113221;28;20283;-76
2022/06/18 12:33:14;;;;;;;16.95;4.57;;;;;;;;;;5112676;28;20701;-76
2022/06/18 12:35:45;;;;;;;15.90;4.55;;;;;;;;;;5112508;27;20190;-76
2022/06/18 12:38:16;;;;;;;23.48;4.97;;;;;;;;;;5111962;28;20284;-76
2022/06/18 12:40:46;;;;;;;15.48;4.70;;;;;;;;;;5116581;27;20388;-76
2022/06/18 12:43:16;;;;;;;21.17;4.72;;;;;;;;;;5117717;27;20287;-76
2022/06/18 12:45:50;;;;;;;14.57;4.30;;;;;;;;;;5112959;28;20252;-77
2022/06/18 12:48:23;;;;;;;18.25;4.70;;;;;;;;;;5113156;28;20224;-77
2022/06/18 12:50:55;;;;;;;14.63;5.15;;;;;;;;;;5113126;28;20280;-76
2022/06/18 12:53:28;;;;;;;12.85;4.15;;;;;;;;;;5112630;28;20288;-76
2022/06/18 12:56:01;;;;;;;14.70;4.63;;;;;;;;;;5112442;28;20217;-77
2022/06/18 12:58:35;;;;;;;19.30;4.53;;;;;;;;;;5108680;28;20599;-76
2022/06/18 13:01:06;;;;;;;18.67;5.35;;;;;;;;;;5106469;28;20673;-76
2022/06/18 13:03:42;;;;;;;14.63;4.82;;;;;;;;;;5111801;28;20229;-76
2022/06/18 13:06:17;;;;;;;18.98;4.78;;;;;;;;;;5120745;27;20315;-76
2022/06/18 13:08:51;;;;;;;19.42;4.50;;;;;;;;;;5132121;27;20231;-76
2022/06/18 13:11:24;;;;;;;16.30;4.55;;;;;;;;;;5132563;27;20283;-76
2022/06/18 13:13:56;;;;;;;12.07;4.28;;;;;;;;;;5130492;27;20275;-76
2022/06/18 13:16:25;;;;;;;14.82;4.90;;;;;;;;;;5132100;27;20193;-76
2022/06/18 13:18:55;;;;;;;16.80;4.85;;;;;;;;;;5131917;27;20303;-76
2022/06/18 13:21:22;;;;;;;14.23;4.47;;;;;;;;;;5132578;27;20227;-76
2022/06/18 13:29:26;;;;;;;16.48;4.22;;;;;;;;;;5124403;27;20330;-76
2022/06/18 13:31:58;;;;;;;13.57;4.38;;;;;;;;;;5132104;27;20254;-76
2022/06/18 13:34:33;;;;;;;21.08;4.43;;;;;;;;;;5127637;27;20224;-76
2022/06/18 13:37:04;;;;;;;16.85;4.20;;;;;;;;;;5130867;27;20231;-76
2022/06/18 13:39:35;;;;;;;18.17;4.30;;;;;;;;;;5131907;27;20312;-76
2022/06/18 13:42:07;;;;;;;17.77;4.95;;;;;;;;;;5131734;27;20287;-76
2022/06/18 13:44:42;;;;;;;16.95;4.35;;;;;;;;;;5132021;27;20409;-76
2022/06/18 13:47:12;;;;;;;16.45;4.90;;;;;;;;;;5131907;27;20606;-76
2022/06/18 13:49:42;;;;;;;15.88;4.53;;;;;;;;;;5138692;27;20193;-76
2022/06/18 13:52:09;;;;;;;20.20;4.45;;;;;;;;;;5131389;27;20228;-76
2022/06/18 13:54:41;;;;;;;22.48;4.90;;;;;;;;;;5136133;27;20256;-76
2022/06/18 13:57:11;;;;;;;17.33;4.50;;;;;;;;;;5137399;27;20534;-77
2022/06/18 13:59:39;;;;;;;19.48;4.80;;;;;;;;;;5143434;27;20208;-77
2022/06/18 14:02:09;;;;;;;20.63;4.68;;;;;;;;;;5143910;27;20694;-77
2022/06/18 14:04:39;;;;;;;13.98;4.25;;;;;;;;;;5129275;27;20228;-77
2022/06/18 14:07:07;;;;;;;18.10;4.78;;;;;;;;;;5129797;27;20315;-77
2022/06/18 14:09:38;;;;;;;15.43;4.68;;;;;;;;;;5123573;28;20224;-77
2022/06/18 14:12:07;;;;;;;13.23;4.05;;;;;;;;;;5131406;28;20302;-77
2022/06/18 14:14:37;;;;;;;12.73;3.83;;;;;;;;;;5124818;28;20196;-77
2022/06/18 14:17:06;;;;;;;13.77;4.30;;;;;;;;;;5132278;27;20651;-77
2022/06/18 14:19:35;;;;;;;13.73;4.22;;;;;;;;;;5131811;27;20308;-76
2022/06/18 14:22:05;;;;;;;17.27;5.05;;;;;;;;;;5133263;27;20212;-77
2022/06/18 14:24:38;;;;;;;18.25;5.25;;;;;;;;;;5124281;27;20292;-77
2022/06/18 14:27:07;;;;;;;17.50;4.93;;;;;;;;;;5135597;27;20770;-76
2022/06/18 14:29:43;;;;;;;18.33;4.25;;;;;;;;;;5135783;27;20188;-76
2022/06/18 14:32:13;;;;;;;19.23;4.15;;;;;;;;;;5135297;27;20202;-75
2022/06/18 14:34:46;;;;;;;15.13;4.45;;;;;;;;;;5134966;27;20277;-75
2022/06/18 14:37:14;;;;;;;17.70;4.40;;;;;;;;;;5135233;27;20283;-75
2022/06/18 14:39:44;;;;;;;14.50;4.03;;;;;;;;;;5131340;27;20277;-75
2022/06/18 14:42:14;;;;;;;16.35;4.50;;;;;;;;;;5139655;27;20220;-75
2022/06/18 14:44:57;;;;;;;17.08;4.13;;;;;;;;;;5135882;27;20299;-75
2022/06/18 14:47:40;;;;;;;15.15;3.80;;;;;;;;;;5130590;27;20231;-75
2022/06/18 14:50:21;;;;;;;12.73;3.90;;;;;;;;;;5138248;27;20192;-75
2022/06/18 14:52:56;;;;;;;15.98;4.05;;;;;;;;;;5133825;27;20300;-75
2022/06/18 14:55:31;;;;;;;19.48;4.50;;;;;;;;;;5133748;27;20291;-75
2022/06/18 14:58:22;;;;;;;14.80;4.45;;;;;;;;;;5133324;27;20303;-75
2022/06/18 15:01:04;;;;;;;17.35;4.45;;;;;;;;;;5133715;27;20315;-76
2022/06/18 15:03:35;;;;;;;19.00;4.20;;;;;;;;;;5110333;27;20292;-76
2022/06/18 15:06:06;;;;;;;19.42;4.60;;;;;;;;;;5118640;27;20310;-76
2022/06/18 15:08:38;;;;;;;13.63;4.43;;;;;;;;;;5115952;27;20652;-76